sensor_id;sensor_type;location;lat;lon;timestamp;P1;durP1;ratioP1;P2;durP2;ratioP2
16320;SDS011;8269;50.990;4.494;2023-03-31T00:45:23;12.70;;;2.80;;
16320;SDS011;8269;50.990;4.494;2023-03-31T08:02:36;12.87;;;2.83;;
16320;SDS011;8269;50.990;4.494;2023-03-31T08:05:02;13.75;;;3.25;;
16320;SDS011;8269;50.990;4.494;2023-03-31T08:07:28;14.90;;;3.60;;
16320;SDS011;8269;50.990;4.494;2023-03-31T08:09:57;16.70;;;4.03;;
16320;SDS011;8269;50.990;4.494;2023-03-31T08:12:22;11.00;;;3.00;;
16320;SDS011;8269;50.990;4.494;2023-03-31T08:31:47;13.87;;;3.53;;
16320;SDS011;8269;50.990;4.494;2023-03-31T08:46:23;14.75;;;3.10;;
16320;SDS011;8269;50.990;4.494;2023-03-31T08:56:15;7.95;;;2.00;;
16320;SDS011;8269;50.990;4.494;2023-03-31T11:55:27;11.77;;;2.25;;
16320;SDS011;8269;50.990;4.494;2023-03-31T12:00:33;9.00;;;2.92;;
16320;SDS011;8269;50.990;4.494;2023-03-31T12:03:07;10.60;;;2.40;;
16320;SDS011;8269;50.990;4.494;2023-03-31T12:06:01;8.60;;;2.17;;
16320;SDS011;8269;50.990;4.494;2023-03-31T12:08:33;8.52;;;2.40;;
16320;SDS011;8269;50.990;4.494;2023-03-31T12:14:14;10.13;;;2.33;;
16320;SDS011;8269;50.990;4.494;2023-03-31T12:16:45;11.53;;;2.63;;
16320;SDS011;8269;50.990;4.494;2023-03-31T12:19:15;8.33;;;2.37;;
16320;SDS011;8269;50.990;4.494;2023-03-31T12:21:43;7.50;;;2.57;;
16320;SDS011;8269;50.990;4.494;2023-03-31T12:24:10;11.87;;;2.23;;
16320;SDS011;8269;50.990;4.494;2023-03-31T13:15:29;4.87;;;1.20;;
16320;SDS011;8269;50.990;4.494;2023-03-31T13:18:02;2.50;;;0.80;;
16320;SDS011;8269;50.990;4.494;2023-03-31T13:33:00;1.77;;;0.60;;
16320;SDS011;8269;50.990;4.494;2023-03-31T15:18:52;3.53;;;1.00;;
16320;SDS011;8269;50.990;4.494;2023-03-31T15:21:23;1.23;;;0.50;;
16320;SDS011;8269;50.990;4.494;2023-03-31T15:23:50;2.17;;;0.87;;
16320;SDS011;8269;50.990;4.494;2023-03-31T15:26:17;2.17;;;0.83;;
16320;SDS011;8269;50.990;4.494;2023-03-31T15:29:28;2.37;;;0.73;;
16320;SDS011;8269;50.990;4.494;2023-03-31T15:31:33;4.20;;;1.00;;
16320;SDS011;8269;50.990;4.494;2023-03-31T15:34:10;5.55;;;1.15;;
16320;SDS011;8269;50.990;4.494;2023-03-31T16:03:27;3.87;;;0.90;;
16320;SDS011;8269;50.990;4.494;2023-03-31T16:18:07;6.13;;;1.90;;
16320;SDS011;8269;50.990;4.494;2023-03-31T16:20:36;6.17;;;1.57;;
16320;SDS011;8269;50.990;4.494;2023-03-31T16:23:14;5.73;;;1.40;;
16320;SDS011;8269;50.990;4.494;2023-03-31T16:28:07;4.63;;;1.30;;
16320;SDS011;8269;50.990;4.494;2023-03-31T16:30:41;5.57;;;1.47;;
16320;SDS011;8269;50.990;4.494;2023-03-31T16:50:23;11.67;;;2.27;;
16320;SDS011;8269;50.990;4.494;2023-03-31T16:52:48;8.63;;;1.80;;
16320;SDS011;8269;50.990;4.494;2023-03-31T16:55:14;7.23;;;2.07;;
16320;SDS011;8269;50.990;4.494;2023-03-31T16:57:40;10.73;;;2.07;;
16320;SDS011;8269;50.990;4.494;2023-03-31T17:00:06;11.60;;;2.37;;
16320;SDS011;8269;50.990;4.494;2023-03-31T17:02:32;9.27;;;2.67;;
16320;SDS011;8269;50.990;4.494;2023-03-31T17:04:57;9.37;;;2.13;;
16320;SDS011;8269;50.990;4.494;2023-03-31T17:07:23;11.57;;;2.67;;
16320;SDS011;8269;50.990;4.494;2023-03-31T17:09:48;11.43;;;2.63;;
16320;SDS011;8269;50.990;4.494;2023-03-31T17:12:15;10.27;;;2.23;;
16320;SDS011;8269;50.990;4.494;2023-03-31T17:14:40;8.97;;;2.27;;
16320;SDS011;8269;50.990;4.494;2023-03-31T17:17:06;9.60;;;2.60;;
16320;SDS011;8269;50.990;4.494;2023-03-31T17:19:32;10.07;;;2.23;;
16320;SDS011;8269;50.990;4.494;2023-03-31T17:21:57;10.00;;;2.93;;
16320;SDS011;8269;50.990;4.494;2023-03-31T17:24:26;5.93;;;2.23;;
16320;SDS011;8269;50.990;4.494;2023-03-31T17:26:52;10.50;;;2.60;;
16320;SDS011;8269;50.990;4.494;2023-03-31T17:29:17;8.57;;;2.60;;
16320;SDS011;8269;50.990;4.494;2023-03-31T17:31:43;7.20;;;2.20;;
16320;SDS011;8269;50.990;4.494;2023-03-31T17:34:09;8.80;;;1.93;;
16320;SDS011;8269;50.990;4.494;2023-03-31T17:36:35;9.77;;;2.37;;
16320;SDS011;8269;50.990;4.494;2023-03-31T17:39:01;8.17;;;2.03;;
16320;SDS011;8269;50.990;4.494;2023-03-31T17:41:28;9.30;;;2.37;;
16320;SDS011;8269;50.990;4.494;2023-03-31T17:43:54;10.90;;;1.97;;
16320;SDS011;8269;50.990;4.494;2023-03-31T17:46:20;8.90;;;2.23;;
16320;SDS011;8269;50.990;4.494;2023-03-31T17:48:46;8.77;;;1.77;;
16320;SDS011;8269;50.990;4.494;2023-03-31T17:51:15;9.30;;;2.07;;
16320;SDS011;8269;50.990;4.494;2023-03-31T17:53:42;9.23;;;2.07;;
16320;SDS011;8269;50.990;4.494;2023-03-31T17:56:10;6.33;;;1.77;;
16320;SDS011;8269;50.990;4.494;2023-03-31T17:58:36;8.03;;;2.10;;
16320;SDS011;8269;50.990;4.494;2023-03-31T18:01:02;8.53;;;2.50;;
16320;SDS011;8269;50.990;4.494;2023-03-31T18:03:33;8.23;;;2.10;;
16320;SDS011;8269;50.990;4.494;2023-03-31T18:06:02;11.13;;;2.47;;
16320;SDS011;8269;50.990;4.494;2023-03-31T18:08:30;5.57;;;1.63;;
16320;SDS011;8269;50.990;4.494;2023-03-31T18:10:57;11.87;;;3.20;;
16320;SDS011;8269;50.990;4.494;2023-03-31T18:13:23;11.57;;;2.97;;
16320;SDS011;8269;50.990;4.494;2023-03-31T18:15:49;14.07;;;2.33;;
16320;SDS011;8269;50.990;4.494;2023-03-31T18:18:16;9.20;;;2.70;;
16320;SDS011;8269;50.990;4.494;2023-03-31T18:20:43;8.97;;;2.17;;
16320;SDS011;8269;50.990;4.494;2023-03-31T18:23:09;14.67;;;2.93;;
16320;SDS011;8269;50.990;4.494;2023-03-31T18:25:35;8.67;;;2.50;;
16320;SDS011;8269;50.990;4.494;2023-03-31T18:28:01;12.97;;;2.93;;
16320;SDS011;8269;50.990;4.494;2023-03-31T18:30:26;10.23;;;2.60;;
16320;SDS011;8269;50.990;4.494;2023-03-31T18:32:52;12.93;;;3.40;;
16320;SDS011;8269;50.990;4.494;2023-03-31T18:35:18;14.80;;;3.00;;
16320;SDS011;8269;50.990;4.494;2023-03-31T18:37:44;9.97;;;2.90;;
16320;SDS011;8269;50.990;4.494;2023-03-31T18:40:10;13.77;;;3.00;;
16320;SDS011;8269;50.990;4.494;2023-03-31T18:42:38;9.40;;;2.80;;
16320;SDS011;8269;50.990;4.494;2023-03-31T18:45:05;9.27;;;2.63;;
16320;SDS011;8269;50.990;4.494;2023-03-31T18:47:32;7.73;;;2.00;;
16320;SDS011;8269;50.990;4.494;2023-03-31T18:49:58;12.20;;;2.83;;
16320;SDS011;8269;50.990;4.494;2023-03-31T18:52:25;14.80;;;3.40;;
16320;SDS011;8269;50.990;4.494;2023-03-31T18:54:51;18.83;;;3.70;;
16320;SDS011;8269;50.990;4.494;2023-03-31T18:57:16;18.53;;;3.60;;
16320;SDS011;8269;50.990;4.494;2023-03-31T18:59:42;9.67;;;2.73;;
16320;SDS011;8269;50.990;4.494;2023-03-31T19:02:11;10.50;;;2.90;;
16320;SDS011;8269;50.990;4.494;2023-03-31T19:04:38;14.67;;;3.37;;
16320;SDS011;8269;50.990;4.494;2023-03-31T19:07:03;7.73;;;2.37;;
16320;SDS011;8269;50.990;4.494;2023-03-31T19:09:29;17.07;;;3.10;;
16320;SDS011;8269;50.990;4.494;2023-03-31T19:11:56;15.33;;;3.70;;
16320;SDS011;8269;50.990;4.494;2023-03-31T19:14:22;15.43;;;3.23;;
16320;SDS011;8269;50.990;4.494;2023-03-31T19:16:48;17.67;;;4.67;;
16320;SDS011;8269;50.990;4.494;2023-03-31T19:19:14;14.63;;;4.10;;
16320;SDS011;8269;50.990;4.494;2023-03-31T19:21:39;12.23;;;3.27;;
16320;SDS011;8269;50.990;4.494;2023-03-31T19:24:06;13.77;;;3.00;;
16320;SDS011;8269;50.990;4.494;2023-03-31T19:26:33;14.30;;;3.13;;
16320;SDS011;8269;50.990;4.494;2023-03-31T19:28:58;15.27;;;3.17;;
16320;SDS011;8269;50.990;4.494;2023-03-31T19:31:24;19.60;;;3.20;;
16320;SDS011;8269;50.990;4.494;2023-03-31T19:33:50;14.63;;;3.27;;
16320;SDS011;8269;50.990;4.494;2023-03-31T19:36:16;11.13;;;2.63;;
16320;SDS011;8269;50.990;4.494;2023-03-31T19:38:41;18.07;;;3.67;;
16320;SDS011;8269;50.990;4.494;2023-03-31T19:41:07;18.00;;;3.20;;
16320;SDS011;8269;50.990;4.494;2023-03-31T20:03:38;13.00;;;2.73;;
16320;SDS011;8269;50.990;4.494;2023-03-31T20:06:08;11.75;;;2.50;;
16320;SDS011;8269;50.990;4.494;2023-03-31T20:08:39;7.90;;;1.97;;
16320;SDS011;8269;50.990;4.494;2023-03-31T20:11:06;14.80;;;3.30;;
16320;SDS011;8269;50.990;4.494;2023-03-31T20:13:36;15.77;;;3.07;;
16320;SDS011;8269;50.990;4.494;2023-03-31T20:16:12;13.70;;;3.05;;
16320;SDS011;8269;50.990;4.494;2023-03-31T20:18:41;9.37;;;2.50;;
16320;SDS011;8269;50.990;4.494;2023-03-31T20:21:14;10.93;;;2.53;;
16320;SDS011;8269;50.990;4.494;2023-03-31T20:23:42;10.73;;;2.70;;
16320;SDS011;8269;50.990;4.494;2023-03-31T20:26:09;11.37;;;2.87;;
16320;SDS011;8269;50.990;4.494;2023-03-31T20:28:37;11.10;;;2.87;;
16320;SDS011;8269;50.990;4.494;2023-03-31T20:33:32;12.93;;;2.60;;
16320;SDS011;8269;50.990;4.494;2023-03-31T20:36:02;8.57;;;2.40;;
16320;SDS011;8269;50.990;4.494;2023-03-31T20:45:51;9.30;;;2.40;;
16320;SDS011;8269;50.990;4.494;2023-03-31T20:50:44;6.50;;;1.93;;
16320;SDS011;8269;50.990;4.494;2023-03-31T20:53:10;11.90;;;3.03;;
16320;SDS011;8269;50.990;4.494;2023-03-31T20:55:35;10.43;;;2.40;;
16320;SDS011;8269;50.990;4.494;2023-03-31T20:58:02;10.50;;;2.83;;
16320;SDS011;8269;50.990;4.494;2023-03-31T21:15:05;7.85;;;2.00;;
16320;SDS011;8269;50.990;4.494;2023-03-31T21:17:31;12.43;;;2.33;;
16320;SDS011;8269;50.990;4.494;2023-03-31T21:22:23;6.47;;;1.70;;
16320;SDS011;8269;50.990;4.494;2023-03-31T21:24:51;8.20;;;2.13;;
16320;SDS011;8269;50.990;4.494;2023-03-31T21:27:17;12.13;;;2.27;;
16320;SDS011;8269;50.990;4.494;2023-03-31T21:29:43;8.63;;;2.60;;
16320;SDS011;8269;50.990;4.494;2023-03-31T21:32:09;14.57;;;3.13;;
16320;SDS011;8269;50.990;4.494;2023-03-31T21:34:35;11.53;;;2.80;;
16320;SDS011;8269;50.990;4.494;2023-03-31T21:37:00;15.97;;;3.10;;
16320;SDS011;8269;50.990;4.494;2023-03-31T21:39:26;15.00;;;2.97;;
16320;SDS011;8269;50.990;4.494;2023-03-31T21:41:52;11.30;;;3.10;;
16320;SDS011;8269;50.990;4.494;2023-03-31T21:44:17;6.13;;;1.73;;
16320;SDS011;8269;50.990;4.494;2023-03-31T21:46:43;15.37;;;3.13;;
16320;SDS011;8269;50.990;4.494;2023-03-31T21:49:09;16.67;;;2.67;;
16320;SDS011;8269;50.990;4.494;2023-03-31T21:51:35;12.70;;;2.77;;
16320;SDS011;8269;50.990;4.494;2023-03-31T21:54:01;11.17;;;2.20;;
16320;SDS011;8269;50.990;4.494;2023-03-31T21:56:26;13.67;;;2.80;;
16320;SDS011;8269;50.990;4.494;2023-03-31T21:58:53;21.85;;;3.60;;
16320;SDS011;8269;50.990;4.494;2023-03-31T22:01:19;11.90;;;3.03;;
16320;SDS011;8269;50.990;4.494;2023-03-31T22:03:45;15.33;;;3.10;;
16320;SDS011;8269;50.990;4.494;2023-03-31T22:06:12;7.90;;;1.90;;
16320;SDS011;8269;50.990;4.494;2023-03-31T22:08:38;12.00;;;2.60;;
16320;SDS011;8269;50.990;4.494;2023-03-31T22:11:05;10.17;;;2.10;;
16320;SDS011;8269;50.990;4.494;2023-03-31T22:13:32;8.43;;;2.23;;
16320;SDS011;8269;50.990;4.494;2023-03-31T22:15:58;7.70;;;1.80;;
16320;SDS011;8269;50.990;4.494;2023-03-31T22:18:26;10.13;;;1.80;;
16320;SDS011;8269;50.990;4.494;2023-03-31T22:20:53;12.60;;;2.40;;
16320;SDS011;8269;50.990;4.494;2023-03-31T22:23:18;17.90;;;2.80;;
16320;SDS011;8269;50.990;4.494;2023-03-31T22:25:45;15.07;;;3.57;;
16320;SDS011;8269;50.990;4.494;2023-03-31T22:28:10;11.43;;;2.70;;
16320;SDS011;8269;50.990;4.494;2023-03-31T22:30:37;10.60;;;2.00;;
16320;SDS011;8269;50.990;4.494;2023-03-31T22:33:03;10.17;;;2.33;;
16320;SDS011;8269;50.990;4.494;2023-03-31T22:35:29;10.37;;;2.03;;
16320;SDS011;8269;50.990;4.494;2023-03-31T22:37:55;9.57;;;2.47;;
16320;SDS011;8269;50.990;4.494;2023-03-31T22:40:21;12.90;;;2.00;;
16320;SDS011;8269;50.990;4.494;2023-03-31T22:42:47;7.20;;;1.77;;
16320;SDS011;8269;50.990;4.494;2023-03-31T22:45:13;7.53;;;2.30;;
16320;SDS011;8269;50.990;4.494;2023-03-31T22:47:39;12.80;;;2.40;;
16320;SDS011;8269;50.990;4.494;2023-03-31T22:50:09;12.47;;;2.47;;
16320;SDS011;8269;50.990;4.494;2023-03-31T22:52:35;6.87;;;1.50;;
16320;SDS011;8269;50.990;4.494;2023-03-31T22:55:00;5.30;;;1.57;;
16320;SDS011;8269;50.990;4.494;2023-03-31T22:57:26;10.33;;;1.77;;
16320;SDS011;8269;50.990;4.494;2023-03-31T22:59:52;7.10;;;2.00;;
16320;SDS011;8269;50.990;4.494;2023-03-31T23:02:18;11.40;;;1.97;;
16320;SDS011;8269;50.990;4.494;2023-03-31T23:04:43;7.20;;;1.73;;
16320;SDS011;8269;50.990;4.494;2023-03-31T23:07:10;9.33;;;2.13;;
16320;SDS011;8269;50.990;4.494;2023-03-31T23:09:35;10.53;;;2.27;;
16320;SDS011;8269;50.990;4.494;2023-03-31T23:12:01;8.37;;;2.00;;
16320;SDS011;8269;50.990;4.494;2023-03-31T23:14:26;8.13;;;1.87;;
16320;SDS011;8269;50.990;4.494;2023-03-31T23:16:52;9.73;;;2.03;;
16320;SDS011;8269;50.990;4.494;2023-03-31T23:19:18;6.00;;;2.10;;
16320;SDS011;8269;50.990;4.494;2023-03-31T23:21:44;7.93;;;1.73;;
16320;SDS011;8269;50.990;4.494;2023-03-31T23:24:10;7.90;;;2.10;;
16320;SDS011;8269;50.990;4.494;2023-03-31T23:26:36;7.47;;;1.87;;
16320;SDS011;8269;50.990;4.494;2023-03-31T23:29:02;7.10;;;1.37;;
16320;SDS011;8269;50.990;4.494;2023-03-31T23:31:29;4.60;;;1.70;;
16320;SDS011;8269;50.990;4.494;2023-03-31T23:33:56;7.13;;;1.80;;
16320;SDS011;8269;50.990;4.494;2023-03-31T23:36:22;8.97;;;1.80;;
16320;SDS011;8269;50.990;4.494;2023-03-31T23:38:50;5.00;;;1.60;;
16320;SDS011;8269;50.990;4.494;2023-03-31T23:41:17;8.77;;;1.67;;
16320;SDS011;8269;50.990;4.494;2023-03-31T23:43:43;6.27;;;1.67;;
16320;SDS011;8269;50.990;4.494;2023-03-31T23:46:09;9.23;;;1.70;;
16320;SDS011;8269;50.990;4.494;2023-03-31T23:48:36;6.57;;;1.57;;
16320;SDS011;8269;50.990;4.494;2023-03-31T23:51:05;8.17;;;1.70;;
16320;SDS011;8269;50.990;4.494;2023-03-31T23:53:32;6.77;;;1.60;;
16320;SDS011;8269;50.990;4.494;2023-03-31T23:55:59;4.47;;;1.43;;
16320;SDS011;8269;50.990;4.494;2023-03-31T23:58:29;5.27;;;1.47;;
